sensor_id;sensor_type;location;lat;lon;timestamp;temperature;humidity
64654;DHT22;51065;48.884;12.598;2023-03-01T00:02:00;-2.30;99.90
64654;DHT22;51065;48.884;12.598;2023-03-01T00:04:26;-2.30;99.90
64654;DHT22;51065;48.884;12.598;2023-03-01T00:06:53;-2.30;99.90
64654;DHT22;51065;48.884;12.598;2023-03-01T00:09:18;-2.30;99.90
64654;DHT22;51065;48.884;12.598;2023-03-01T00:11:44;-2.20;99.90
64654;DHT22;51065;48.884;12.598;2023-03-01T00:14:10;-2.20;99.90
64654;DHT22;51065;48.884;12.598;2023-03-01T00:16:41;-2.10;99.90
64654;DHT22;51065;48.884;12.598;2023-03-01T00:19:11;-2.10;99.90
64654;DHT22;51065;48.884;12.598;2023-03-01T00:21:37;-2.10;99.90
64654;DHT22;51065;48.884;12.598;2023-03-01T00:24:03;-1.90;99.90
64654;DHT22;51065;48.884;12.598;2023-03-01T00:26:29;-1.80;99.90
64654;DHT22;51065;48.884;12.598;2023-03-01T00:28:56;-1.60;99.90
64654;DHT22;51065;48.884;12.598;2023-03-01T00:31:28;-1.50;99.90
64654;DHT22;51065;48.884;12.598;2023-03-01T00:33:59;-1.20;99.90
64654;DHT22;51065;48.884;12.598;2023-03-01T00:36:28;-1.10;99.90
64654;DHT22;51065;48.884;12.598;2023-03-01T00:38:53;-1.10;99.90
64654;DHT22;51065;48.884;12.598;2023-03-01T00:41:20;-1.10;99.90
64654;DHT22;51065;48.884;12.598;2023-03-01T00:43:48;-0.90;99.90
64654;DHT22;51065;48.884;12.598;2023-03-01T00:46:19;-0.80;99.90
64654;DHT22;51065;48.884;12.598;2023-03-01T00:48:45;-0.90;99.90
64654;DHT22;51065;48.884;12.598;2023-03-01T00:51:14;-0.90;99.90
64654;DHT22;51065;48.884;12.598;2023-03-01T00:53:40;-0.90;99.90
64654;DHT22;51065;48.884;12.598;2023-03-01T00:56:07;-1.10;99.90
64654;DHT22;51065;48.884;12.598;2023-03-01T00:58:33;-1.20;99.90
64654;DHT22;51065;48.884;12.598;2023-03-01T01:00:59;-1.30;99.90
64654;DHT22;51065;48.884;12.598;2023-03-01T01:03:25;-1.30;99.90
64654;DHT22;51065;48.884;12.598;2023-03-01T01:05:52;-1.30;99.90
64654;DHT22;51065;48.884;12.598;2023-03-01T01:08:19;-1.30;99.90
64654;DHT22;51065;48.884;12.598;2023-03-01T01:10:45;-1.30;99.90
64654;DHT22;51065;48.884;12.598;2023-03-01T01:13:12;-1.40;99.90
64654;DHT22;51065;48.884;12.598;2023-03-01T01:15:38;-1.50;99.90
64654;DHT22;51065;48.884;12.598;2023-03-01T01:18:04;-1.60;99.90
64654;DHT22;51065;48.884;12.598;2023-03-01T01:20:30;-1.60;99.90
64654;DHT22;51065;48.884;12.598;2023-03-01T01:22:56;-1.30;99.90
64654;DHT22;51065;48.884;12.598;2023-03-01T01:25:21;-1.30;99.90
64654;DHT22;51065;48.884;12.598;2023-03-01T01:27:50;-1.20;99.90
64654;DHT22;51065;48.884;12.598;2023-03-01T01:30:16;-1.10;99.90
64654;DHT22;51065;48.884;12.598;2023-03-01T01:32:41;-0.90;99.90
64654;DHT22;51065;48.884;12.598;2023-03-01T01:35:07;-0.90;99.90
64654;DHT22;51065;48.884;12.598;2023-03-01T01:37:33;-1.00;99.90
64654;DHT22;51065;48.884;12.598;2023-03-01T01:39:59;-1.00;99.90
64654;DHT22;51065;48.884;12.598;2023-03-01T01:42:26;-0.90;99.90
64654;DHT22;51065;48.884;12.598;2023-03-01T01:45:24;-1.00;99.90
64654;DHT22;51065;48.884;12.598;2023-03-01T01:47:52;-1.10;99.90
64654;DHT22;51065;48.884;12.598;2023-03-01T01:50:19;-1.10;99.90
64654;DHT22;51065;48.884;12.598;2023-03-01T01:52:46;-1.20;99.90
64654;DHT22;51065;48.884;12.598;2023-03-01T01:55:20;-1.40;99.90
64654;DHT22;51065;48.884;12.598;2023-03-01T01:57:52;-1.40;99.90
64654;DHT22;51065;48.884;12.598;2023-03-01T02:00:22;-1.50;99.90
64654;DHT22;51065;48.884;12.598;2023-03-01T02:02:51;-1.40;99.90
64654;DHT22;51065;48.884;12.598;2023-03-01T02:05:49;-1.50;99.90
64654;DHT22;51065;48.884;12.598;2023-03-01T02:08:19;-1.30;99.90
64654;DHT22;51065;48.884;12.598;2023-03-01T02:10:46;-1.40;99.90
64654;DHT22;51065;48.884;12.598;2023-03-01T02:13:12;-1.40;99.90
64654;DHT22;51065;48.884;12.598;2023-03-01T02:15:39;-1.30;99.90
64654;DHT22;51065;48.884;12.598;2023-03-01T02:18:06;-1.30;99.90
64654;DHT22;51065;48.884;12.598;2023-03-01T02:21:01;-1.40;99.90
64654;DHT22;51065;48.884;12.598;2023-03-01T02:23:30;-1.30;99.90
64654;DHT22;51065;48.884;12.598;2023-03-01T02:26:03;-1.40;99.90
64654;DHT22;51065;48.884;12.598;2023-03-01T02:28:37;-1.40;99.90
64654;DHT22;51065;48.884;12.598;2023-03-01T02:31:04;-1.40;99.90
64654;DHT22;51065;48.884;12.598;2023-03-01T02:33:49;-1.40;99.90
64654;DHT22;51065;48.884;12.598;2023-03-01T02:36:20;-1.40;99.90
64654;DHT22;51065;48.884;12.598;2023-03-01T02:38:48;-1.30;99.90
64654;DHT22;51065;48.884;12.598;2023-03-01T02:41:16;-1.40;99.90
64654;DHT22;51065;48.884;12.598;2023-03-01T02:43:43;-1.60;99.90
64654;DHT22;51065;48.884;12.598;2023-03-01T02:46:15;-1.60;99.90
64654;DHT22;51065;48.884;12.598;2023-03-01T02:48:50;-1.70;99.90
64654;DHT22;51065;48.884;12.598;2023-03-01T02:51:34;-1.60;99.90
64654;DHT22;51065;48.884;12.598;2023-03-01T02:54:42;-1.40;99.90
64654;DHT22;51065;48.884;12.598;2023-03-01T02:57:12;-1.40;99.90
64654;DHT22;51065;48.884;12.598;2023-03-01T02:59:38;-1.40;99.90
64654;DHT22;51065;48.884;12.598;2023-03-01T03:02:07;-1.30;99.90
64654;DHT22;51065;48.884;12.598;2023-03-01T03:04:33;-1.40;99.90
64654;DHT22;51065;48.884;12.598;2023-03-01T03:06:58;-1.40;99.90
64654;DHT22;51065;48.884;12.598;2023-03-01T03:09:24;-1.40;99.90
64654;DHT22;51065;48.884;12.598;2023-03-01T03:11:50;-1.40;99.90
64654;DHT22;51065;48.884;12.598;2023-03-01T03:14:16;-1.30;99.90
64654;DHT22;51065;48.884;12.598;2023-03-01T03:16:49;-1.30;99.90
64654;DHT22;51065;48.884;12.598;2023-03-01T03:19:16;-1.30;99.90
64654;DHT22;51065;48.884;12.598;2023-03-01T03:21:43;-1.40;99.90
64654;DHT22;51065;48.884;12.598;2023-03-01T03:24:08;-1.40;99.90
64654;DHT22;51065;48.884;12.598;2023-03-01T03:26:34;-1.40;99.90
64654;DHT22;51065;48.884;12.598;2023-03-01T03:29:00;-1.40;99.90
64654;DHT22;51065;48.884;12.598;2023-03-01T03:31:25;-1.40;99.90
64654;DHT22;51065;48.884;12.598;2023-03-01T03:33:51;-1.40;99.90
64654;DHT22;51065;48.884;12.598;2023-03-01T03:36:22;-1.50;99.90
64654;DHT22;51065;48.884;12.598;2023-03-01T03:38:48;-1.50;99.90
64654;DHT22;51065;48.884;12.598;2023-03-01T03:41:14;-1.50;99.90
64654;DHT22;51065;48.884;12.598;2023-03-01T03:43:40;-1.60;99.90
64654;DHT22;51065;48.884;12.598;2023-03-01T03:46:08;-1.50;99.90
64654;DHT22;51065;48.884;12.598;2023-03-01T03:48:43;-1.60;99.90
64654;DHT22;51065;48.884;12.598;2023-03-01T03:51:16;-1.60;99.90
64654;DHT22;51065;48.884;12.598;2023-03-01T03:53:43;-1.60;99.90
64654;DHT22;51065;48.884;12.598;2023-03-01T03:56:09;-1.60;99.90
64654;DHT22;51065;48.884;12.598;2023-03-01T03:58:35;-1.60;99.90
64654;DHT22;51065;48.884;12.598;2023-03-01T04:01:01;-1.60;99.90
64654;DHT22;51065;48.884;12.598;2023-03-01T04:03:27;-1.60;99.90
64654;DHT22;51065;48.884;12.598;2023-03-01T04:05:53;-1.50;99.90
64654;DHT22;51065;48.884;12.598;2023-03-01T04:08:21;-1.60;99.90
64654;DHT22;51065;48.884;12.598;2023-03-01T04:10:49;-1.60;99.90
64654;DHT22;51065;48.884;12.598;2023-03-01T04:13:17;-1.60;99.90
64654;DHT22;51065;48.884;12.598;2023-03-01T04:15:45;-1.60;99.90
64654;DHT22;51065;48.884;12.598;2023-03-01T04:18:15;-1.60;99.90
64654;DHT22;51065;48.884;12.598;2023-03-01T04:20:41;-1.60;99.90
64654;DHT22;51065;48.884;12.598;2023-03-01T04:23:10;-1.60;99.90
64654;DHT22;51065;48.884;12.598;2023-03-01T04:25:55;-1.80;99.90
64654;DHT22;51065;48.884;12.598;2023-03-01T04:28:37;-1.80;99.90
64654;DHT22;51065;48.884;12.598;2023-03-01T04:31:06;-1.90;99.90
64654;DHT22;51065;48.884;12.598;2023-03-01T04:33:39;-1.90;99.90
64654;DHT22;51065;48.884;12.598;2023-03-01T04:36:06;-1.90;99.90
64654;DHT22;51065;48.884;12.598;2023-03-01T04:38:34;-1.80;99.90
64654;DHT22;51065;48.884;12.598;2023-03-01T04:41:00;-1.80;99.90
64654;DHT22;51065;48.884;12.598;2023-03-01T04:43:25;-1.80;99.90
64654;DHT22;51065;48.884;12.598;2023-03-01T04:45:51;-1.70;99.90
64654;DHT22;51065;48.884;12.598;2023-03-01T04:48:16;-1.70;99.90
64654;DHT22;51065;48.884;12.598;2023-03-01T04:50:42;-1.80;99.90
64654;DHT22;51065;48.884;12.598;2023-03-01T04:53:07;-1.70;99.90
64654;DHT22;51065;48.884;12.598;2023-03-01T04:55:33;-1.80;99.90
64654;DHT22;51065;48.884;12.598;2023-03-01T04:57:59;-1.90;99.90
64654;DHT22;51065;48.884;12.598;2023-03-01T05:00:24;-2.00;99.90
64654;DHT22;51065;48.884;12.598;2023-03-01T05:02:53;-2.10;99.90
64654;DHT22;51065;48.884;12.598;2023-03-01T05:05:27;-2.00;99.90
64654;DHT22;51065;48.884;12.598;2023-03-01T05:07:55;-2.10;99.90
64654;DHT22;51065;48.884;12.598;2023-03-01T05:10:22;-2.10;99.90
64654;DHT22;51065;48.884;12.598;2023-03-01T05:12:48;-2.00;99.90
64654;DHT22;51065;48.884;12.598;2023-03-01T05:15:14;-2.00;99.90
64654;DHT22;51065;48.884;12.598;2023-03-01T05:17:39;-2.00;99.90
64654;DHT22;51065;48.884;12.598;2023-03-01T05:20:05;-1.90;99.90
64654;DHT22;51065;48.884;12.598;2023-03-01T05:22:34;-1.90;99.90
64654;DHT22;51065;48.884;12.598;2023-03-01T05:25:00;-1.90;99.90
64654;DHT22;51065;48.884;12.598;2023-03-01T05:27:25;-1.90;99.90
64654;DHT22;51065;48.884;12.598;2023-03-01T05:29:51;-2.00;99.90
64654;DHT22;51065;48.884;12.598;2023-03-01T05:32:16;-2.10;99.90
64654;DHT22;51065;48.884;12.598;2023-03-01T05:34:42;-2.10;99.90
64654;DHT22;51065;48.884;12.598;2023-03-01T05:37:08;-2.10;99.90
64654;DHT22;51065;48.884;12.598;2023-03-01T05:39:34;-2.10;99.90
64654;DHT22;51065;48.884;12.598;2023-03-01T05:42:00;-2.20;99.90
64654;DHT22;51065;48.884;12.598;2023-03-01T05:44:28;-2.20;99.90
64654;DHT22;51065;48.884;12.598;2023-03-01T05:46:54;-2.10;99.90
64654;DHT22;51065;48.884;12.598;2023-03-01T05:49:21;-2.10;99.90
64654;DHT22;51065;48.884;12.598;2023-03-01T05:51:50;-2.20;99.90
64654;DHT22;51065;48.884;12.598;2023-03-01T05:54:17;-2.20;99.90
64654;DHT22;51065;48.884;12.598;2023-03-01T05:56:43;-2.30;99.90
64654;DHT22;51065;48.884;12.598;2023-03-01T05:59:09;-2.40;99.90
64654;DHT22;51065;48.884;12.598;2023-03-01T06:01:36;-2.30;99.90
64654;DHT22;51065;48.884;12.598;2023-03-01T06:04:02;-2.30;99.90
64654;DHT22;51065;48.884;12.598;2023-03-01T06:06:28;-2.40;99.90
64654;DHT22;51065;48.884;12.598;2023-03-01T06:08:54;-2.40;99.90
64654;DHT22;51065;48.884;12.598;2023-03-01T06:11:20;-2.40;99.90
64654;DHT22;51065;48.884;12.598;2023-03-01T06:13:46;-2.30;99.90
64654;DHT22;51065;48.884;12.598;2023-03-01T06:16:13;-2.20;99.90
64654;DHT22;51065;48.884;12.598;2023-03-01T06:18:38;-2.20;99.90
64654;DHT22;51065;48.884;12.598;2023-03-01T06:21:05;-2.10;99.90
64654;DHT22;51065;48.884;12.598;2023-03-01T06:23:32;-2.10;99.90
64654;DHT22;51065;48.884;12.598;2023-03-01T06:25:57;-2.00;99.90
64654;DHT22;51065;48.884;12.598;2023-03-01T06:28:23;-2.00;99.90
64654;DHT22;51065;48.884;12.598;2023-03-01T06:30:50;-2.00;99.90
64654;DHT22;51065;48.884;12.598;2023-03-01T06:33:17;-1.90;99.90
64654;DHT22;51065;48.884;12.598;2023-03-01T06:35:44;-1.90;99.90
64654;DHT22;51065;48.884;12.598;2023-03-01T06:38:10;-1.60;99.90
64654;DHT22;51065;48.884;12.598;2023-03-01T06:40:35;-1.00;99.90
64654;DHT22;51065;48.884;12.598;2023-03-01T06:43:01;-0.60;99.90
64654;DHT22;51065;48.884;12.598;2023-03-01T06:45:27;-0.40;99.90
64654;DHT22;51065;48.884;12.598;2023-03-01T06:47:52;-0.20;99.90
64654;DHT22;51065;48.884;12.598;2023-03-01T06:50:18;0.10;99.10
64654;DHT22;51065;48.884;12.598;2023-03-01T06:52:44;0.50;97.50
64654;DHT22;51065;48.884;12.598;2023-03-01T06:55:11;0.90;95.80
64654;DHT22;51065;48.884;12.598;2023-03-01T06:57:36;1.10;95.80
64654;DHT22;51065;48.884;12.598;2023-03-01T07:00:05;1.40;93.20
64654;DHT22;51065;48.884;12.598;2023-03-01T07:02:32;1.50;92.50
64654;DHT22;51065;48.884;12.598;2023-03-01T07:04:57;1.50;92.40
64654;DHT22;51065;48.884;12.598;2023-03-01T07:07:23;1.60;92.20
64654;DHT22;51065;48.884;12.598;2023-03-01T07:09:49;1.60;91.70
64654;DHT22;51065;48.884;12.598;2023-03-01T07:12:15;1.60;91.50
64654;DHT22;51065;48.884;12.598;2023-03-01T07:14:41;1.70;90.90
64654;DHT22;51065;48.884;12.598;2023-03-01T07:17:08;1.90;91.20
64654;DHT22;51065;48.884;12.598;2023-03-01T07:19:34;2.20;87.90
64654;DHT22;51065;48.884;12.598;2023-03-01T07:21:59;2.30;86.60
64654;DHT22;51065;48.884;12.598;2023-03-01T07:24:25;2.30;88.00
64654;DHT22;51065;48.884;12.598;2023-03-01T07:26:51;2.40;88.00
64654;DHT22;51065;48.884;12.598;2023-03-01T07:29:18;2.60;85.20
64654;DHT22;51065;48.884;12.598;2023-03-01T07:31:44;3.20;77.00
64654;DHT22;51065;48.884;12.598;2023-03-01T07:34:09;3.40;75.60
64654;DHT22;51065;48.884;12.598;2023-03-01T07:36:36;3.10;75.30
64654;DHT22;51065;48.884;12.598;2023-03-01T07:39:02;3.00;76.30
64654;DHT22;51065;48.884;12.598;2023-03-01T07:41:29;3.40;74.90
64654;DHT22;51065;48.884;12.598;2023-03-01T07:43:55;3.40;72.60
64654;DHT22;51065;48.884;12.598;2023-03-01T07:46:20;3.60;73.30
64654;DHT22;51065;48.884;12.598;2023-03-01T07:48:46;3.60;70.60
64654;DHT22;51065;48.884;12.598;2023-03-01T07:51:12;3.80;71.90
64654;DHT22;51065;48.884;12.598;2023-03-01T07:53:38;4.00;68.10
64654;DHT22;51065;48.884;12.598;2023-03-01T07:56:05;3.60;73.40
64654;DHT22;51065;48.884;12.598;2023-03-01T07:58:33;3.40;70.00
64654;DHT22;51065;48.884;12.598;2023-03-01T08:01:08;3.50;75.10
64654;DHT22;51065;48.884;12.598;2023-03-01T08:03:35;3.70;69.40
64654;DHT22;51065;48.884;12.598;2023-03-01T08:06:02;3.80;69.00
64654;DHT22;51065;48.884;12.598;2023-03-01T08:08:28;4.10;67.90
64654;DHT22;51065;48.884;12.598;2023-03-01T08:10:57;4.30;65.20
64654;DHT22;51065;48.884;12.598;2023-03-01T08:13:22;4.50;64.50
64654;DHT22;51065;48.884;12.598;2023-03-01T08:15:49;4.60;63.80
64654;DHT22;51065;48.884;12.598;2023-03-01T08:18:17;4.20;64.20
64654;DHT22;51065;48.884;12.598;2023-03-01T08:20:43;4.50;64.10
64654;DHT22;51065;48.884;12.598;2023-03-01T08:23:09;4.80;63.50
64654;DHT22;51065;48.884;12.598;2023-03-01T08:25:35;5.70;61.60
64654;DHT22;51065;48.884;12.598;2023-03-01T08:28:00;5.70;60.00
64654;DHT22;51065;48.884;12.598;2023-03-01T08:30:26;5.40;60.10
64654;DHT22;51065;48.884;12.598;2023-03-01T08:32:52;5.50;60.00
64654;DHT22;51065;48.884;12.598;2023-03-01T08:35:17;5.80;58.30
64654;DHT22;51065;48.884;12.598;2023-03-01T08:37:43;5.70;57.50
64654;DHT22;51065;48.884;12.598;2023-03-01T08:40:09;5.30;58.80
64654;DHT22;51065;48.884;12.598;2023-03-01T08:42:37;5.90;56.90
64654;DHT22;51065;48.884;12.598;2023-03-01T08:45:03;6.40;55.10
64654;DHT22;51065;48.884;12.598;2023-03-01T08:47:29;7.00;53.20
64654;DHT22;51065;48.884;12.598;2023-03-01T08:49:55;7.50;52.20
64654;DHT22;51065;48.884;12.598;2023-03-01T08:52:20;7.40;51.80
64654;DHT22;51065;48.884;12.598;2023-03-01T08:54:49;8.30;50.40
64654;DHT22;51065;48.884;12.598;2023-03-01T08:57:14;8.70;47.80
64654;DHT22;51065;48.884;12.598;2023-03-01T08:59:45;7.70;48.50
64654;DHT22;51065;48.884;12.598;2023-03-01T09:02:13;7.20;49.10
64654;DHT22;51065;48.884;12.598;2023-03-01T09:04:39;7.90;48.80
64654;DHT22;51065;48.884;12.598;2023-03-01T09:07:05;7.50;49.40
64654;DHT22;51065;48.884;12.598;2023-03-01T09:09:31;7.20;51.90
64654;DHT22;51065;48.884;12.598;2023-03-01T09:11:57;7.90;49.60
64654;DHT22;51065;48.884;12.598;2023-03-01T09:14:22;8.30;48.00
64654;DHT22;51065;48.884;12.598;2023-03-01T09:16:48;8.10;48.20
64654;DHT22;51065;48.884;12.598;2023-03-01T09:19:13;7.90;47.80
64654;DHT22;51065;48.884;12.598;2023-03-01T09:21:39;8.30;48.10
64654;DHT22;51065;48.884;12.598;2023-03-01T09:24:06;8.80;46.60
64654;DHT22;51065;48.884;12.598;2023-03-01T09:26:32;9.20;45.00
64654;DHT22;51065;48.884;12.598;2023-03-01T09:28:57;9.50;44.70
64654;DHT22;51065;48.884;12.598;2023-03-01T09:31:24;9.90;43.10
64654;DHT22;51065;48.884;12.598;2023-03-01T09:33:51;9.30;44.30
64654;DHT22;51065;48.884;12.598;2023-03-01T09:36:22;8.90;45.30
64654;DHT22;51065;48.884;12.598;2023-03-01T09:38:48;9.00;43.20
64654;DHT22;51065;48.884;12.598;2023-03-01T09:43:50;9.70;43.00
64654;DHT22;51065;48.884;12.598;2023-03-01T09:46:20;9.60;42.90
64654;DHT22;51065;48.884;12.598;2023-03-01T09:48:56;9.40;44.30
64654;DHT22;51065;48.884;12.598;2023-03-01T09:51:42;10.10;42.50
64654;DHT22;51065;48.884;12.598;2023-03-01T09:54:09;9.50;42.40
64654;DHT22;51065;48.884;12.598;2023-03-01T10:01:47;9.40;44.90
64654;DHT22;51065;48.884;12.598;2023-03-01T10:07:29;10.10;43.20
64654;DHT22;51065;48.884;12.598;2023-03-01T10:09:58;10.90;42.10
64654;DHT22;51065;48.884;12.598;2023-03-01T10:12:30;11.20;41.60
64654;DHT22;51065;48.884;12.598;2023-03-01T10:15:04;11.60;41.00
64654;DHT22;51065;48.884;12.598;2023-03-01T10:17:35;11.40;38.80
64654;DHT22;51065;48.884;12.598;2023-03-01T10:20:26;11.70;38.20
64654;DHT22;51065;48.884;12.598;2023-03-01T10:22:52;11.70;38.60
64654;DHT22;51065;48.884;12.598;2023-03-01T10:28:44;11.80;38.10
64654;DHT22;51065;48.884;12.598;2023-03-01T10:31:16;11.80;39.60
64654;DHT22;51065;48.884;12.598;2023-03-01T10:33:43;11.90;38.50
64654;DHT22;51065;48.884;12.598;2023-03-01T10:36:09;12.00;38.00
64654;DHT22;51065;48.884;12.598;2023-03-01T10:38:55;11.10;38.70
64654;DHT22;51065;48.884;12.598;2023-03-01T10:41:23;11.40;39.50
64654;DHT22;51065;48.884;12.598;2023-03-01T10:43:54;11.30;37.50
64654;DHT22;51065;48.884;12.598;2023-03-01T10:46:30;12.10;38.00
64654;DHT22;51065;48.884;12.598;2023-03-01T10:51:33;11.90;39.50
64654;DHT22;51065;48.884;12.598;2023-03-01T10:53:58;11.70;39.70
64654;DHT22;51065;48.884;12.598;2023-03-01T10:56:24;12.50;37.70
64654;DHT22;51065;48.884;12.598;2023-03-01T10:59:00;11.90;38.60
64654;DHT22;51065;48.884;12.598;2023-03-01T11:01:32;11.40;40.10
64654;DHT22;51065;48.884;12.598;2023-03-01T11:06:36;12.40;39.30
64654;DHT22;51065;48.884;12.598;2023-03-01T11:09:32;12.10;39.50
64654;DHT22;51065;48.884;12.598;2023-03-01T11:12:08;11.80;40.80
64654;DHT22;51065;48.884;12.598;2023-03-01T11:14:45;11.10;40.90
64654;DHT22;51065;48.884;12.598;2023-03-01T11:17:28;10.90;42.00
64654;DHT22;51065;48.884;12.598;2023-03-01T11:22:50;13.00;38.80
64654;DHT22;51065;48.884;12.598;2023-03-01T11:25:20;12.90;39.10
64654;DHT22;51065;48.884;12.598;2023-03-01T11:27:47;13.20;37.80
64654;DHT22;51065;48.884;12.598;2023-03-01T11:35:58;11.70;40.70
64654;DHT22;51065;48.884;12.598;2023-03-01T11:38:28;12.90;39.20
64654;DHT22;51065;48.884;12.598;2023-03-01T11:41:11;12.80;40.10
64654;DHT22;51065;48.884;12.598;2023-03-01T11:43:49;11.50;40.40
64654;DHT22;51065;48.884;12.598;2023-03-01T11:49:10;12.10;40.40
64654;DHT22;51065;48.884;12.598;2023-03-01T12:00:18;13.20;40.60
64654;DHT22;51065;48.884;12.598;2023-03-01T12:03:23;11.30;43.10
64654;DHT22;51065;48.884;12.598;2023-03-01T12:09:00;13.50;41.00
64654;DHT22;51065;48.884;12.598;2023-03-01T12:11:47;14.10;39.60
64654;DHT22;51065;48.884;12.598;2023-03-01T12:20:29;14.40;39.90
64654;DHT22;51065;48.884;12.598;2023-03-01T12:31:44;12.60;42.60
64654;DHT22;51065;48.884;12.598;2023-03-01T12:45:44;13.10;42.20
64654;DHT22;51065;48.884;12.598;2023-03-01T12:51:07;13.10;42.10
64654;DHT22;51065;48.884;12.598;2023-03-01T12:53:40;12.30;44.40
64654;DHT22;51065;48.884;12.598;2023-03-01T12:56:12;12.30;44.60
64654;DHT22;51065;48.884;12.598;2023-03-01T12:59:09;12.20;43.60
64654;DHT22;51065;48.884;12.598;2023-03-01T13:02:04;12.40;44.30
64654;DHT22;51065;48.884;12.598;2023-03-01T13:04:54;11.80;43.60
64654;DHT22;51065;48.884;12.598;2023-03-01T13:08:01;11.90;44.00
64654;DHT22;51065;48.884;12.598;2023-03-01T13:10:34;11.80;47.00
64654;DHT22;51065;48.884;12.598;2023-03-01T13:13:18;11.40;45.50
64654;DHT22;51065;48.884;12.598;2023-03-01T13:15:44;11.70;45.40
64654;DHT22;51065;48.884;12.598;2023-03-01T13:26:03;11.60;46.10
64654;DHT22;51065;48.884;12.598;2023-03-01T13:28:37;11.10;47.00
64654;DHT22;51065;48.884;12.598;2023-03-01T13:31:05;11.20;46.60
64654;DHT22;51065;48.884;12.598;2023-03-01T13:35:59;11.00;48.00
64654;DHT22;51065;48.884;12.598;2023-03-01T13:41:17;11.30;48.60
64654;DHT22;51065;48.884;12.598;2023-03-01T13:46:44;11.00;47.80
64654;DHT22;51065;48.884;12.598;2023-03-01T13:49:16;10.70;49.20
64654;DHT22;51065;48.884;12.598;2023-03-01T13:51:47;10.60;49.80
64654;DHT22;51065;48.884;12.598;2023-03-01T13:54:15;10.60;49.70
64654;DHT22;51065;48.884;12.598;2023-03-01T13:56:42;10.60;50.20
64654;DHT22;51065;48.884;12.598;2023-03-01T13:59:21;10.30;51.20
64654;DHT22;51065;48.884;12.598;2023-03-01T14:01:55;10.40;50.60
64654;DHT22;51065;48.884;12.598;2023-03-01T14:04:29;10.70;50.20
64654;DHT22;51065;48.884;12.598;2023-03-01T14:07:22;10.60;50.70
64654;DHT22;51065;48.884;12.598;2023-03-01T14:09:54;10.70;50.50
64654;DHT22;51065;48.884;12.598;2023-03-01T14:15:06;11.00;49.40
64654;DHT22;51065;48.884;12.598;2023-03-01T14:20:25;11.20;49.30
64654;DHT22;51065;48.884;12.598;2023-03-01T14:22:57;10.90;49.70
64654;DHT22;51065;48.884;12.598;2023-03-01T14:25:34;11.00;50.20
64654;DHT22;51065;48.884;12.598;2023-03-01T14:30:46;10.80;50.30
64654;DHT22;51065;48.884;12.598;2023-03-01T14:33:31;10.40;51.30
64654;DHT22;51065;48.884;12.598;2023-03-01T14:36:03;10.30;51.90
64654;DHT22;51065;48.884;12.598;2023-03-01T14:38:36;9.90;53.50
64654;DHT22;51065;48.884;12.598;2023-03-01T14:41:08;9.50;55.40
64654;DHT22;51065;48.884;12.598;2023-03-01T14:43:35;9.20;56.20
64654;DHT22;51065;48.884;12.598;2023-03-01T14:46:02;8.90;57.60
64654;DHT22;51065;48.884;12.598;2023-03-01T14:48:28;8.80;57.80
64654;DHT22;51065;48.884;12.598;2023-03-01T14:50:55;8.70;58.50
64654;DHT22;51065;48.884;12.598;2023-03-01T14:53:28;8.60;59.00
64654;DHT22;51065;48.884;12.598;2023-03-01T14:55:59;8.60;59.80
64654;DHT22;51065;48.884;12.598;2023-03-01T14:58:32;8.50;59.60
64654;DHT22;51065;48.884;12.598;2023-03-01T15:01:02;8.50;60.90
64654;DHT22;51065;48.884;12.598;2023-03-01T15:03:36;8.50;61.10
64654;DHT22;51065;48.884;12.598;2023-03-01T15:06:04;8.50;61.90
64654;DHT22;51065;48.884;12.598;2023-03-01T15:08:31;8.40;63.20
64654;DHT22;51065;48.884;12.598;2023-03-01T15:11:04;8.40;63.80
64654;DHT22;51065;48.884;12.598;2023-03-01T15:13:33;8.40;65.10
64654;DHT22;51065;48.884;12.598;2023-03-01T15:16:11;8.50;64.90
64654;DHT22;51065;48.884;12.598;2023-03-01T15:18:46;8.40;64.20
64654;DHT22;51065;48.884;12.598;2023-03-01T15:23:40;8.40;64.00
64654;DHT22;51065;48.884;12.598;2023-03-01T15:26:16;8.40;65.00
64654;DHT22;51065;48.884;12.598;2023-03-01T15:28:49;8.30;65.10
64654;DHT22;51065;48.884;12.598;2023-03-01T15:31:24;8.20;67.10
64654;DHT22;51065;48.884;12.598;2023-03-01T15:33:51;8.20;67.90
64654;DHT22;51065;48.884;12.598;2023-03-01T15:36:41;8.10;67.60
64654;DHT22;51065;48.884;12.598;2023-03-01T15:39:31;8.10;68.90
64654;DHT22;51065;48.884;12.598;2023-03-01T15:47:41;8.20;67.70
64654;DHT22;51065;48.884;12.598;2023-03-01T15:50:26;8.20;68.40
64654;DHT22;51065;48.884;12.598;2023-03-01T15:52:52;8.30;68.50
64654;DHT22;51065;48.884;12.598;2023-03-01T15:55:19;8.30;68.40
64654;DHT22;51065;48.884;12.598;2023-03-01T15:57:46;8.20;68.60
64654;DHT22;51065;48.884;12.598;2023-03-01T16:00:13;8.00;70.00
64654;DHT22;51065;48.884;12.598;2023-03-01T16:02:40;7.90;71.50
64654;DHT22;51065;48.884;12.598;2023-03-01T16:05:23;7.70;72.00
64654;DHT22;51065;48.884;12.598;2023-03-01T16:07:50;7.60;74.80
64654;DHT22;51065;48.884;12.598;2023-03-01T16:10:16;7.50;76.90
64654;DHT22;51065;48.884;12.598;2023-03-01T16:12:42;7.40;78.00
64654;DHT22;51065;48.884;12.598;2023-03-01T16:15:18;7.30;79.20
64654;DHT22;51065;48.884;12.598;2023-03-01T16:17:44;7.20;80.20
64654;DHT22;51065;48.884;12.598;2023-03-01T16:20:10;7.00;81.90
64654;DHT22;51065;48.884;12.598;2023-03-01T16:25:36;6.90;84.80
64654;DHT22;51065;48.884;12.598;2023-03-01T16:28:03;6.70;86.40
64654;DHT22;51065;48.884;12.598;2023-03-01T16:30:33;6.50;88.00
64654;DHT22;51065;48.884;12.598;2023-03-01T16:33:00;6.30;90.20
64654;DHT22;51065;48.884;12.598;2023-03-01T16:35:26;6.20;91.20
64654;DHT22;51065;48.884;12.598;2023-03-01T16:37:52;6.10;91.00
64654;DHT22;51065;48.884;12.598;2023-03-01T16:40:25;5.80;92.40
64654;DHT22;51065;48.884;12.598;2023-03-01T16:42:52;5.50;94.10
64654;DHT22;51065;48.884;12.598;2023-03-01T16:45:19;5.50;94.70
64654;DHT22;51065;48.884;12.598;2023-03-01T16:47:45;5.40;95.50
64654;DHT22;51065;48.884;12.598;2023-03-01T16:50:14;5.70;95.20
64654;DHT22;51065;48.884;12.598;2023-03-01T16:52:39;5.60;94.70
64654;DHT22;51065;48.884;12.598;2023-03-01T16:55:06;5.60;94.60
64654;DHT22;51065;48.884;12.598;2023-03-01T16:57:35;5.50;94.90
64654;DHT22;51065;48.884;12.598;2023-03-01T17:00:00;5.40;95.00
64654;DHT22;51065;48.884;12.598;2023-03-01T17:02:34;5.50;94.90
64654;DHT22;51065;48.884;12.598;2023-03-01T17:05:00;5.40;94.80
64654;DHT22;51065;48.884;12.598;2023-03-01T17:07:25;5.20;94.70
64654;DHT22;51065;48.884;12.598;2023-03-01T17:09:51;5.20;95.10
64654;DHT22;51065;48.884;12.598;2023-03-01T17:12:16;5.10;95.10
64654;DHT22;51065;48.884;12.598;2023-03-01T17:14:42;5.10;95.40
64654;DHT22;51065;48.884;12.598;2023-03-01T17:17:09;5.00;95.50
64654;DHT22;51065;48.884;12.598;2023-03-01T17:19:36;5.00;95.50
64654;DHT22;51065;48.884;12.598;2023-03-01T17:22:06;4.90;95.50
64654;DHT22;51065;48.884;12.598;2023-03-01T17:24:37;4.70;96.00